KBUR/BUR METAR and TAF weather

Enter ICAO airport designator
Station Type Date Time Source
KBUR METAR 2018/01/24 06:53 UTC NOAA

KBUR 240653Z 36003KT 10SM CLR 13/M03 A3015 RMK AO2 SLP201 T01331028


Station Type Date Time Source
KBUR Decoded METAR 2018/01/24 06:53 UTC NOAA

BURBANK-GLENDALE-PASADENA, CA, United States (KBUR) 34-12N 118-22W 217M
Jan 24, 2018 - 01:53 AM EST / 2018.01.24 0653 UTC
Wind: from the N (360 degrees) at 3 MPH (3 KT):0
Visibility: 10 mile(s):0
Sky conditions: clear
Temperature: 55.9 F (13.3 C)
Dew Point: 27.0 F (-2.8 C)
Relative Humidity: 32%
Pressure (altimeter): 30.15 in. Hg (1020 hPa)
ob: KBUR 240653Z 36003KT 10SM CLR 13/M03 A3015 RMK AO2 SLP201 T01331028
cycle: 7

Station Type Date Time Source
KBUR TAF 2018/01/24 06:39 UTC NOAA

TAF KBUR 240536Z 2406/2506 VRB03KT P6SM SKC
FM242100 18008KT P6SM BKN250
FM250400 VRB03KT P6SM BKN150


Example: see airport list